sensor_id;sensor_type;location;lat;lon;timestamp;P1;durP1;ratioP1;P2;durP2;ratioP2
17059;SDS011;8646;49.716;9.266;2022-11-14T00:02:26;17.63;;;8.63;;
17059;SDS011;8646;49.716;9.266;2022-11-14T00:05:31;20.93;;;8.80;;
17059;SDS011;8646;49.716;9.266;2022-11-14T00:08:35;18.13;;;8.67;;
17059;SDS011;8646;49.716;9.266;2022-11-14T00:11:38;16.43;;;8.60;;
17059;SDS011;8646;49.716;9.266;2022-11-14T00:14:41;16.83;;;8.70;;
17059;SDS011;8646;49.716;9.266;2022-11-14T00:17:43;18.83;;;9.93;;
17059;SDS011;8646;49.716;9.266;2022-11-14T00:20:48;20.37;;;9.60;;
17059;SDS011;8646;49.716;9.266;2022-11-14T00:23:52;21.10;;;9.73;;
17059;SDS011;8646;49.716;9.266;2022-11-14T00:26:55;19.47;;;9.47;;
17059;SDS011;8646;49.716;9.266;2022-11-14T00:29:58;20.83;;;9.60;;
17059;SDS011;8646;49.716;9.266;2022-11-14T00:33:01;21.70;;;9.53;;
17059;SDS011;8646;49.716;9.266;2022-11-14T00:36:05;18.83;;;9.70;;
17059;SDS011;8646;49.716;9.266;2022-11-14T00:39:10;19.90;;;9.50;;
17059;SDS011;8646;49.716;9.266;2022-11-14T00:42:14;18.10;;;9.33;;
17059;SDS011;8646;49.716;9.266;2022-11-14T00:45:16;20.90;;;9.63;;
17059;SDS011;8646;49.716;9.266;2022-11-14T00:48:19;21.83;;;9.80;;
17059;SDS011;8646;49.716;9.266;2022-11-14T00:51:23;20.27;;;10.33;;
17059;SDS011;8646;49.716;9.266;2022-11-14T00:54:26;19.63;;;10.20;;
17059;SDS011;8646;49.716;9.266;2022-11-14T00:57:29;24.33;;;11.03;;
17059;SDS011;8646;49.716;9.266;2022-11-14T01:00:32;20.97;;;11.10;;
17059;SDS011;8646;49.716;9.266;2022-11-14T01:03:35;25.10;;;11.00;;
17059;SDS011;8646;49.716;9.266;2022-11-14T01:06:39;18.33;;;9.07;;
17059;SDS011;8646;49.716;9.266;2022-11-14T01:09:43;16.47;;;9.10;;
17059;SDS011;8646;49.716;9.266;2022-11-14T01:12:46;20.57;;;9.07;;
17059;SDS011;8646;49.716;9.266;2022-11-14T01:15:48;19.57;;;9.70;;
17059;SDS011;8646;49.716;9.266;2022-11-14T01:18:52;22.10;;;10.20;;
17059;SDS011;8646;49.716;9.266;2022-11-14T01:21:56;19.77;;;10.20;;
17059;SDS011;8646;49.716;9.266;2022-11-14T01:25:06;17.73;;;9.17;;
17059;SDS011;8646;49.716;9.266;2022-11-14T01:28:10;19.13;;;9.83;;
17059;SDS011;8646;49.716;9.266;2022-11-14T01:31:15;21.83;;;9.73;;
17059;SDS011;8646;49.716;9.266;2022-11-14T01:34:20;20.50;;;9.77;;
17059;SDS011;8646;49.716;9.266;2022-11-14T01:37:24;19.83;;;9.23;;
17059;SDS011;8646;49.716;9.266;2022-11-14T01:40:27;18.00;;;8.97;;
17059;SDS011;8646;49.716;9.266;2022-11-14T01:43:30;19.47;;;9.40;;
17059;SDS011;8646;49.716;9.266;2022-11-14T01:46:35;20.13;;;9.50;;
17059;SDS011;8646;49.716;9.266;2022-11-14T01:49:40;24.90;;;10.10;;
17059;SDS011;8646;49.716;9.266;2022-11-14T01:52:48;21.43;;;9.67;;
17059;SDS011;8646;49.716;9.266;2022-11-14T01:55:51;20.13;;;9.53;;
17059;SDS011;8646;49.716;9.266;2022-11-14T01:58:57;19.93;;;9.50;;
17059;SDS011;8646;49.716;9.266;2022-11-14T02:02:05;21.10;;;9.70;;
17059;SDS011;8646;49.716;9.266;2022-11-14T02:05:14;19.60;;;9.30;;
17059;SDS011;8646;49.716;9.266;2022-11-14T02:08:20;16.73;;;9.60;;
17059;SDS011;8646;49.716;9.266;2022-11-14T02:11:24;19.07;;;9.07;;
17059;SDS011;8646;49.716;9.266;2022-11-14T02:14:31;19.03;;;9.63;;
17059;SDS011;8646;49.716;9.266;2022-11-14T02:17:35;22.03;;;9.93;;
17059;SDS011;8646;49.716;9.266;2022-11-14T02:20:39;20.77;;;9.70;;
17059;SDS011;8646;49.716;9.266;2022-11-14T02:23:44;17.83;;;9.57;;
17059;SDS011;8646;49.716;9.266;2022-11-14T02:26:46;30.00;;;10.60;;
17059;SDS011;8646;49.716;9.266;2022-11-14T02:29:49;21.77;;;10.70;;
17059;SDS011;8646;49.716;9.266;2022-11-14T02:32:52;24.73;;;10.93;;
17059;SDS011;8646;49.716;9.266;2022-11-14T02:36:12;22.00;;;11.07;;
17059;SDS011;8646;49.716;9.266;2022-11-14T02:39:15;22.23;;;11.33;;
17059;SDS011;8646;49.716;9.266;2022-11-14T02:42:18;20.60;;;10.23;;
17059;SDS011;8646;49.716;9.266;2022-11-14T02:45:21;21.90;;;10.90;;
17059;SDS011;8646;49.716;9.266;2022-11-14T02:48:24;25.37;;;10.90;;
17059;SDS011;8646;49.716;9.266;2022-11-14T02:51:29;23.03;;;10.90;;
17059;SDS011;8646;49.716;9.266;2022-11-14T02:54:32;20.67;;;10.47;;
17059;SDS011;8646;49.716;9.266;2022-11-14T02:57:34;20.93;;;10.97;;
17059;SDS011;8646;49.716;9.266;2022-11-14T03:00:38;27.53;;;10.63;;
17059;SDS011;8646;49.716;9.266;2022-11-14T03:04:01;22.17;;;10.73;;
17059;SDS011;8646;49.716;9.266;2022-11-14T03:07:06;23.03;;;11.23;;
17059;SDS011;8646;49.716;9.266;2022-11-14T03:10:09;20.57;;;10.27;;
17059;SDS011;8646;49.716;9.266;2022-11-14T03:13:12;22.73;;;10.83;;
17059;SDS011;8646;49.716;9.266;2022-11-14T03:16:15;22.60;;;10.73;;
17059;SDS011;8646;49.716;9.266;2022-11-14T03:19:18;24.77;;;11.03;;
17059;SDS011;8646;49.716;9.266;2022-11-14T03:22:22;23.40;;;10.60;;
17059;SDS011;8646;49.716;9.266;2022-11-14T03:25:26;19.40;;;10.30;;
17059;SDS011;8646;49.716;9.266;2022-11-14T03:28:29;26.27;;;10.10;;
17059;SDS011;8646;49.716;9.266;2022-11-14T03:31:32;21.37;;;10.70;;
17059;SDS011;8646;49.716;9.266;2022-11-14T03:34:35;21.80;;;10.03;;
17059;SDS011;8646;49.716;9.266;2022-11-14T03:37:40;21.33;;;9.33;;
17059;SDS011;8646;49.716;9.266;2022-11-14T03:40:43;20.73;;;10.23;;
17059;SDS011;8646;49.716;9.266;2022-11-14T03:43:46;25.27;;;9.70;;
17059;SDS011;8646;49.716;9.266;2022-11-14T03:46:49;20.27;;;9.97;;
17059;SDS011;8646;49.716;9.266;2022-11-14T03:49:53;20.73;;;10.77;;
17059;SDS011;8646;49.716;9.266;2022-11-14T03:52:57;26.30;;;11.23;;
17059;SDS011;8646;49.716;9.266;2022-11-14T03:56:00;25.13;;;11.27;;
17059;SDS011;8646;49.716;9.266;2022-11-14T03:59:03;27.53;;;12.53;;
17059;SDS011;8646;49.716;9.266;2022-11-14T04:02:06;17.20;;;7.97;;
17059;SDS011;8646;49.716;9.266;2022-11-14T04:05:10;27.27;;;13.07;;
17059;SDS011;8646;49.716;9.266;2022-11-14T04:08:14;21.20;;;10.37;;
17059;SDS011;8646;49.716;9.266;2022-11-14T04:11:17;20.33;;;10.00;;
17059;SDS011;8646;49.716;9.266;2022-11-14T04:14:20;24.80;;;11.67;;
17059;SDS011;8646;49.716;9.266;2022-11-14T04:17:23;29.83;;;13.00;;
17059;SDS011;8646;49.716;9.266;2022-11-14T04:20:26;24.13;;;12.13;;
17059;SDS011;8646;49.716;9.266;2022-11-14T04:23:30;24.93;;;12.33;;
17059;SDS011;8646;49.716;9.266;2022-11-14T04:26:34;24.43;;;11.97;;
17059;SDS011;8646;49.716;9.266;2022-11-14T04:29:36;24.83;;;12.67;;
17059;SDS011;8646;49.716;9.266;2022-11-14T04:32:39;24.63;;;11.87;;
17059;SDS011;8646;49.716;9.266;2022-11-14T04:35:42;24.13;;;12.60;;
17059;SDS011;8646;49.716;9.266;2022-11-14T04:38:46;27.73;;;13.10;;
17059;SDS011;8646;49.716;9.266;2022-11-14T04:41:49;27.67;;;13.87;;
17059;SDS011;8646;49.716;9.266;2022-11-14T04:44:52;35.77;;;15.37;;
17059;SDS011;8646;49.716;9.266;2022-11-14T04:47:55;28.83;;;13.67;;
17059;SDS011;8646;49.716;9.266;2022-11-14T04:50:58;25.33;;;11.80;;
17059;SDS011;8646;49.716;9.266;2022-11-14T04:54:02;25.07;;;12.50;;
17059;SDS011;8646;49.716;9.266;2022-11-14T04:57:05;29.97;;;14.40;;
17059;SDS011;8646;49.716;9.266;2022-11-14T05:00:08;27.70;;;14.23;;
17059;SDS011;8646;49.716;9.266;2022-11-14T05:03:12;33.23;;;14.97;;
17059;SDS011;8646;49.716;9.266;2022-11-14T05:06:15;36.07;;;15.87;;
17059;SDS011;8646;49.716;9.266;2022-11-14T05:09:19;35.57;;;16.10;;
17059;SDS011;8646;49.716;9.266;2022-11-14T05:12:22;34.77;;;16.17;;
17059;SDS011;8646;49.716;9.266;2022-11-14T05:15:25;33.97;;;15.20;;
17059;SDS011;8646;49.716;9.266;2022-11-14T05:18:28;36.40;;;15.97;;
17059;SDS011;8646;49.716;9.266;2022-11-14T05:21:31;35.20;;;15.80;;
17059;SDS011;8646;49.716;9.266;2022-11-14T05:24:35;31.03;;;12.83;;
17059;SDS011;8646;49.716;9.266;2022-11-14T05:27:38;32.27;;;15.17;;
17059;SDS011;8646;49.716;9.266;2022-11-14T05:30:41;28.00;;;13.03;;
17059;SDS011;8646;49.716;9.266;2022-11-14T05:33:44;32.60;;;15.07;;
17059;SDS011;8646;49.716;9.266;2022-11-14T05:36:48;33.33;;;14.50;;
17059;SDS011;8646;49.716;9.266;2022-11-14T05:39:52;34.80;;;15.27;;
17059;SDS011;8646;49.716;9.266;2022-11-14T05:42:55;34.50;;;15.53;;
17059;SDS011;8646;49.716;9.266;2022-11-14T05:45:58;30.73;;;14.67;;
17059;SDS011;8646;49.716;9.266;2022-11-14T05:49:02;38.70;;;16.43;;
17059;SDS011;8646;49.716;9.266;2022-11-14T05:52:05;33.73;;;13.80;;
17059;SDS011;8646;49.716;9.266;2022-11-14T05:55:09;32.63;;;15.60;;
17059;SDS011;8646;49.716;9.266;2022-11-14T05:58:12;25.53;;;11.93;;
17059;SDS011;8646;49.716;9.266;2022-11-14T06:01:16;27.80;;;13.13;;
17059;SDS011;8646;49.716;9.266;2022-11-14T06:04:20;28.67;;;14.27;;
17059;SDS011;8646;49.716;9.266;2022-11-14T06:07:23;30.70;;;12.97;;
17059;SDS011;8646;49.716;9.266;2022-11-14T06:10:28;31.03;;;15.33;;
17059;SDS011;8646;49.716;9.266;2022-11-14T06:13:31;35.50;;;15.80;;
17059;SDS011;8646;49.716;9.266;2022-11-14T06:16:35;55.30;;;24.93;;
17059;SDS011;8646;49.716;9.266;2022-11-14T06:19:37;38.37;;;17.57;;
17059;SDS011;8646;49.716;9.266;2022-11-14T06:22:40;36.13;;;16.70;;
17059;SDS011;8646;49.716;9.266;2022-11-14T06:25:44;33.60;;;14.53;;
17059;SDS011;8646;49.716;9.266;2022-11-14T06:28:47;30.07;;;12.47;;
17059;SDS011;8646;49.716;9.266;2022-11-14T06:31:51;41.80;;;19.40;;
17059;SDS011;8646;49.716;9.266;2022-11-14T06:34:53;35.50;;;17.77;;
17059;SDS011;8646;49.716;9.266;2022-11-14T06:37:56;30.80;;;15.50;;
17059;SDS011;8646;49.716;9.266;2022-11-14T06:41:02;34.70;;;16.23;;
17059;SDS011;8646;49.716;9.266;2022-11-14T06:44:06;34.20;;;15.23;;
17059;SDS011;8646;49.716;9.266;2022-11-14T06:47:09;36.97;;;16.30;;
17059;SDS011;8646;49.716;9.266;2022-11-14T06:50:12;37.50;;;16.90;;
17059;SDS011;8646;49.716;9.266;2022-11-14T06:53:15;36.10;;;16.10;;
17059;SDS011;8646;49.716;9.266;2022-11-14T06:56:19;24.53;;;9.00;;
17059;SDS011;8646;49.716;9.266;2022-11-14T06:59:23;25.63;;;11.03;;
17059;SDS011;8646;49.716;9.266;2022-11-14T07:02:26;29.07;;;10.43;;
17059;SDS011;8646;49.716;9.266;2022-11-14T07:05:29;26.57;;;11.17;;
17059;SDS011;8646;49.716;9.266;2022-11-14T07:08:32;32.20;;;14.87;;
17059;SDS011;8646;49.716;9.266;2022-11-14T07:11:37;40.07;;;18.43;;
17059;SDS011;8646;49.716;9.266;2022-11-14T07:14:40;34.60;;;16.10;;
17059;SDS011;8646;49.716;9.266;2022-11-14T07:17:42;30.50;;;13.67;;
17059;SDS011;8646;49.716;9.266;2022-11-14T07:20:45;32.23;;;14.80;;
17059;SDS011;8646;49.716;9.266;2022-11-14T07:23:48;37.97;;;15.40;;
17059;SDS011;8646;49.716;9.266;2022-11-14T07:26:53;30.73;;;14.13;;
17059;SDS011;8646;49.716;9.266;2022-11-14T07:29:56;29.43;;;13.80;;
17059;SDS011;8646;49.716;9.266;2022-11-14T07:32:59;35.43;;;15.30;;
17059;SDS011;8646;49.716;9.266;2022-11-14T07:36:02;31.37;;;15.37;;
17059;SDS011;8646;49.716;9.266;2022-11-14T07:39:05;31.97;;;14.43;;
17059;SDS011;8646;49.716;9.266;2022-11-14T07:42:09;32.83;;;15.20;;
17059;SDS011;8646;49.716;9.266;2022-11-14T07:45:12;31.17;;;12.77;;
17059;SDS011;8646;49.716;9.266;2022-11-14T07:48:16;28.73;;;13.77;;
17059;SDS011;8646;49.716;9.266;2022-11-14T07:51:19;20.30;;;8.07;;
17059;SDS011;8646;49.716;9.266;2022-11-14T07:54:22;31.00;;;13.03;;
17059;SDS011;8646;49.716;9.266;2022-11-14T07:57:26;31.20;;;14.20;;
17059;SDS011;8646;49.716;9.266;2022-11-14T08:00:29;30.47;;;13.47;;
17059;SDS011;8646;49.716;9.266;2022-11-14T08:03:33;30.07;;;13.53;;
17059;SDS011;8646;49.716;9.266;2022-11-14T08:06:41;29.93;;;13.50;;
17059;SDS011;8646;49.716;9.266;2022-11-14T08:09:44;28.57;;;13.03;;
17059;SDS011;8646;49.716;9.266;2022-11-14T08:12:55;28.27;;;13.47;;
17059;SDS011;8646;49.716;9.266;2022-11-14T08:16:19;27.50;;;13.60;;
17059;SDS011;8646;49.716;9.266;2022-11-14T08:19:24;28.00;;;13.83;;
17059;SDS011;8646;49.716;9.266;2022-11-14T08:22:26;24.77;;;12.33;;
17059;SDS011;8646;49.716;9.266;2022-11-14T08:25:29;29.60;;;14.17;;
17059;SDS011;8646;49.716;9.266;2022-11-14T08:28:33;28.47;;;13.77;;
17059;SDS011;8646;49.716;9.266;2022-11-14T08:31:36;24.60;;;12.87;;
17059;SDS011;8646;49.716;9.266;2022-11-14T08:34:39;20.53;;;9.73;;
17059;SDS011;8646;49.716;9.266;2022-11-14T08:37:42;27.13;;;13.17;;
17059;SDS011;8646;49.716;9.266;2022-11-14T08:40:45;24.63;;;12.57;;
17059;SDS011;8646;49.716;9.266;2022-11-14T08:43:50;24.90;;;12.63;;
17059;SDS011;8646;49.716;9.266;2022-11-14T08:46:53;20.20;;;9.03;;
17059;SDS011;8646;49.716;9.266;2022-11-14T08:49:55;26.17;;;12.93;;
17059;SDS011;8646;49.716;9.266;2022-11-14T08:52:58;25.70;;;12.70;;
17059;SDS011;8646;49.716;9.266;2022-11-14T08:56:01;21.77;;;11.00;;
17059;SDS011;8646;49.716;9.266;2022-11-14T08:59:06;21.77;;;10.70;;
17059;SDS011;8646;49.716;9.266;2022-11-14T09:02:08;25.47;;;11.87;;
17059;SDS011;8646;49.716;9.266;2022-11-14T09:05:12;23.17;;;11.67;;
17059;SDS011;8646;49.716;9.266;2022-11-14T09:08:15;22.97;;;11.23;;
17059;SDS011;8646;49.716;9.266;2022-11-14T09:11:18;28.40;;;11.20;;
17059;SDS011;8646;49.716;9.266;2022-11-14T09:14:23;23.70;;;11.90;;
17059;SDS011;8646;49.716;9.266;2022-11-14T09:17:26;16.30;;;7.67;;
17059;SDS011;8646;49.716;9.266;2022-11-14T09:20:29;22.13;;;11.37;;
17059;SDS011;8646;49.716;9.266;2022-11-14T09:23:37;20.43;;;10.77;;
17059;SDS011;8646;49.716;9.266;2022-11-14T09:26:40;21.93;;;10.87;;
17059;SDS011;8646;49.716;9.266;2022-11-14T09:29:44;15.20;;;7.77;;
17059;SDS011;8646;49.716;9.266;2022-11-14T09:32:47;20.43;;;10.70;;
17059;SDS011;8646;49.716;9.266;2022-11-14T09:35:54;17.07;;;9.07;;
17059;SDS011;8646;49.716;9.266;2022-11-14T09:38:58;22.67;;;11.50;;
17059;SDS011;8646;49.716;9.266;2022-11-14T09:42:04;25.10;;;11.17;;
17059;SDS011;8646;49.716;9.266;2022-11-14T09:45:21;20.17;;;10.03;;
17059;SDS011;8646;49.716;9.266;2022-11-14T09:48:26;28.73;;;11.90;;
17059;SDS011;8646;49.716;9.266;2022-11-14T09:51:33;21.20;;;10.43;;
17059;SDS011;8646;49.716;9.266;2022-11-14T09:54:45;22.27;;;10.03;;
17059;SDS011;8646;49.716;9.266;2022-11-14T09:57:53;17.70;;;9.60;;
17059;SDS011;8646;49.716;9.266;2022-11-14T10:01:00;18.17;;;9.23;;
17059;SDS011;8646;49.716;9.266;2022-11-14T10:04:13;20.27;;;10.60;;
17059;SDS011;8646;49.716;9.266;2022-11-14T10:07:26;20.90;;;10.03;;
17059;SDS011;8646;49.716;9.266;2022-11-14T10:10:46;19.00;;;10.27;;
17059;SDS011;8646;49.716;9.266;2022-11-14T10:14:01;21.67;;;10.37;;
17059;SDS011;8646;49.716;9.266;2022-11-14T10:17:27;15.57;;;8.37;;
17059;SDS011;8646;49.716;9.266;2022-11-14T10:20:47;16.17;;;9.60;;
17059;SDS011;8646;49.716;9.266;2022-11-14T10:23:57;18.23;;;8.97;;
17059;SDS011;8646;49.716;9.266;2022-11-14T10:27:09;20.53;;;8.77;;
17059;SDS011;8646;49.716;9.266;2022-11-14T10:30:19;15.57;;;7.93;;
17059;SDS011;8646;49.716;9.266;2022-11-14T10:33:41;14.80;;;6.27;;
17059;SDS011;8646;49.716;9.266;2022-11-14T10:36:54;20.27;;;9.60;;
17059;SDS011;8646;49.716;9.266;2022-11-14T10:40:12;15.27;;;7.77;;
17059;SDS011;8646;49.716;9.266;2022-11-14T10:43:21;16.37;;;8.63;;
17059;SDS011;8646;49.716;9.266;2022-11-14T10:46:29;12.40;;;6.83;;
17059;SDS011;8646;49.716;9.266;2022-11-14T10:49:39;19.30;;;9.40;;
17059;SDS011;8646;49.716;9.266;2022-11-14T10:52:43;14.73;;;6.17;;
17059;SDS011;8646;49.716;9.266;2022-11-14T10:55:48;18.70;;;8.87;;
17059;SDS011;8646;49.716;9.266;2022-11-14T10:59:07;17.37;;;9.63;;
17059;SDS011;8646;49.716;9.266;2022-11-14T11:02:10;17.67;;;9.43;;
17059;SDS011;8646;49.716;9.266;2022-11-14T11:05:15;17.60;;;9.10;;
17059;SDS011;8646;49.716;9.266;2022-11-14T11:08:19;18.50;;;8.60;;
17059;SDS011;8646;49.716;9.266;2022-11-14T11:11:52;15.90;;;9.40;;
17059;SDS011;8646;49.716;9.266;2022-11-14T11:15:07;17.37;;;9.50;;
17059;SDS011;8646;49.716;9.266;2022-11-14T11:18:23;22.40;;;10.97;;
17059;SDS011;8646;49.716;9.266;2022-11-14T11:21:29;23.87;;;11.27;;
17059;SDS011;8646;49.716;9.266;2022-11-14T11:24:49;25.10;;;11.23;;
17059;SDS011;8646;49.716;9.266;2022-11-14T11:28:05;32.43;;;19.03;;
17059;SDS011;8646;49.716;9.266;2022-11-14T11:31:09;16.37;;;8.57;;
17059;SDS011;8646;49.716;9.266;2022-11-14T11:34:12;16.97;;;6.20;;
17059;SDS011;8646;49.716;9.266;2022-11-14T11:37:17;14.37;;;8.17;;
17059;SDS011;8646;49.716;9.266;2022-11-14T11:40:23;27.43;;;12.73;;
17059;SDS011;8646;49.716;9.266;2022-11-14T11:43:29;31.53;;;18.83;;
17059;SDS011;8646;49.716;9.266;2022-11-14T11:46:57;24.93;;;12.33;;
17059;SDS011;8646;49.716;9.266;2022-11-14T11:50:02;10.80;;;4.97;;
17059;SDS011;8646;49.716;9.266;2022-11-14T11:53:11;11.73;;;5.73;;
17059;SDS011;8646;49.716;9.266;2022-11-14T11:56:20;13.13;;;6.57;;
17059;SDS011;8646;49.716;9.266;2022-11-14T11:59:28;13.13;;;8.03;;
17059;SDS011;8646;49.716;9.266;2022-11-14T12:02:36;13.50;;;6.93;;
17059;SDS011;8646;49.716;9.266;2022-11-14T12:05:53;14.23;;;7.33;;
17059;SDS011;8646;49.716;9.266;2022-11-14T12:09:09;9.27;;;4.90;;
17059;SDS011;8646;49.716;9.266;2022-11-14T12:12:19;14.60;;;8.10;;
17059;SDS011;8646;49.716;9.266;2022-11-14T12:15:30;10.70;;;5.80;;
17059;SDS011;8646;49.716;9.266;2022-11-14T12:18:51;12.20;;;6.30;;
17059;SDS011;8646;49.716;9.266;2022-11-14T12:22:16;12.83;;;6.83;;
17059;SDS011;8646;49.716;9.266;2022-11-14T12:25:56;13.00;;;6.57;;
17059;SDS011;8646;49.716;9.266;2022-11-14T12:29:15;13.13;;;6.30;;
17059;SDS011;8646;49.716;9.266;2022-11-14T12:32:32;16.07;;;7.30;;
17059;SDS011;8646;49.716;9.266;2022-11-14T12:35:46;10.67;;;5.47;;
17059;SDS011;8646;49.716;9.266;2022-11-14T12:38:53;14.77;;;7.33;;
17059;SDS011;8646;49.716;9.266;2022-11-14T12:42:02;15.60;;;8.50;;
17059;SDS011;8646;49.716;9.266;2022-11-14T12:48:43;12.20;;;6.67;;
17059;SDS011;8646;49.716;9.266;2022-11-14T12:51:47;11.33;;;6.27;;
17059;SDS011;8646;49.716;9.266;2022-11-14T12:54:51;11.10;;;6.03;;
17059;SDS011;8646;49.716;9.266;2022-11-14T12:57:58;11.27;;;6.60;;
17059;SDS011;8646;49.716;9.266;2022-11-14T13:01:09;10.83;;;6.23;;
17059;SDS011;8646;49.716;9.266;2022-11-14T13:04:28;13.80;;;6.77;;
17059;SDS011;8646;49.716;9.266;2022-11-14T13:07:38;10.03;;;5.20;;
17059;SDS011;8646;49.716;9.266;2022-11-14T13:10:49;16.67;;;8.07;;
17059;SDS011;8646;49.716;9.266;2022-11-14T13:13:57;12.43;;;5.33;;
17059;SDS011;8646;49.716;9.266;2022-11-14T13:17:22;12.87;;;6.60;;
17059;SDS011;8646;49.716;9.266;2022-11-14T13:20:45;17.10;;;7.73;;
17059;SDS011;8646;49.716;9.266;2022-11-14T13:24:14;15.53;;;6.60;;
17059;SDS011;8646;49.716;9.266;2022-11-14T13:27:23;12.80;;;7.03;;
17059;SDS011;8646;49.716;9.266;2022-11-14T13:31:15;17.97;;;8.27;;
17059;SDS011;8646;49.716;9.266;2022-11-14T13:34:28;15.07;;;4.20;;
17059;SDS011;8646;49.716;9.266;2022-11-14T13:37:53;16.77;;;7.73;;
17059;SDS011;8646;49.716;9.266;2022-11-14T13:41:19;23.90;;;9.47;;
17059;SDS011;8646;49.716;9.266;2022-11-14T13:44:57;15.43;;;7.57;;
17059;SDS011;8646;49.716;9.266;2022-11-14T13:48:24;14.20;;;7.40;;
17059;SDS011;8646;49.716;9.266;2022-11-14T13:51:49;15.17;;;7.57;;
17059;SDS011;8646;49.716;9.266;2022-11-14T13:54:54;13.13;;;6.33;;
17059;SDS011;8646;49.716;9.266;2022-11-14T13:58:01;15.23;;;7.67;;
17059;SDS011;8646;49.716;9.266;2022-11-14T14:01:20;8.40;;;4.33;;
17059;SDS011;8646;49.716;9.266;2022-11-14T14:04:44;9.97;;;5.17;;
17059;SDS011;8646;49.716;9.266;2022-11-14T14:07:57;8.67;;;3.70;;
17059;SDS011;8646;49.716;9.266;2022-11-14T14:11:19;14.83;;;5.83;;
17059;SDS011;8646;49.716;9.266;2022-11-14T14:14:42;18.40;;;9.57;;
17059;SDS011;8646;49.716;9.266;2022-11-14T14:17:59;16.57;;;8.47;;
17059;SDS011;8646;49.716;9.266;2022-11-14T14:21:12;14.53;;;7.40;;
17059;SDS011;8646;49.716;9.266;2022-11-14T14:24:37;23.93;;;7.57;;
17059;SDS011;8646;49.716;9.266;2022-11-14T14:27:53;14.63;;;7.73;;
17059;SDS011;8646;49.716;9.266;2022-11-14T14:31:03;22.57;;;13.27;;
17059;SDS011;8646;49.716;9.266;2022-11-14T14:34:19;9.17;;;3.90;;
17059;SDS011;8646;49.716;9.266;2022-11-14T14:37:25;16.60;;;8.67;;
17059;SDS011;8646;49.716;9.266;2022-11-14T14:40:30;15.27;;;8.27;;
17059;SDS011;8646;49.716;9.266;2022-11-14T14:43:34;15.03;;;8.40;;
17059;SDS011;8646;49.716;9.266;2022-11-14T14:46:38;10.83;;;5.50;;
17059;SDS011;8646;49.716;9.266;2022-11-14T14:49:41;18.20;;;6.93;;
17059;SDS011;8646;49.716;9.266;2022-11-14T14:52:45;14.90;;;7.43;;
17059;SDS011;8646;49.716;9.266;2022-11-14T14:55:57;12.50;;;5.80;;
17059;SDS011;8646;49.716;9.266;2022-11-14T14:59:14;16.30;;;7.43;;
17059;SDS011;8646;49.716;9.266;2022-11-14T15:02:24;9.87;;;5.00;;
17059;SDS011;8646;49.716;9.266;2022-11-14T15:05:28;13.53;;;7.10;;
17059;SDS011;8646;49.716;9.266;2022-11-14T15:08:33;13.00;;;5.50;;
17059;SDS011;8646;49.716;9.266;2022-11-14T15:11:40;10.13;;;5.50;;
17059;SDS011;8646;49.716;9.266;2022-11-14T15:14:44;13.33;;;7.43;;
17059;SDS011;8646;49.716;9.266;2022-11-14T15:17:48;13.50;;;6.30;;
17059;SDS011;8646;49.716;9.266;2022-11-14T15:21:08;16.17;;;7.67;;
17059;SDS011;8646;49.716;9.266;2022-11-14T15:24:14;16.67;;;7.47;;
17059;SDS011;8646;49.716;9.266;2022-11-14T15:27:19;19.37;;;8.63;;
17059;SDS011;8646;49.716;9.266;2022-11-14T15:30:22;16.17;;;7.87;;
17059;SDS011;8646;49.716;9.266;2022-11-14T15:33:28;12.50;;;6.00;;
17059;SDS011;8646;49.716;9.266;2022-11-14T15:36:32;11.10;;;5.73;;
17059;SDS011;8646;49.716;9.266;2022-11-14T15:39:37;10.63;;;5.20;;
17059;SDS011;8646;49.716;9.266;2022-11-14T15:42:39;15.07;;;7.00;;
17059;SDS011;8646;49.716;9.266;2022-11-14T15:45:42;9.97;;;4.73;;
17059;SDS011;8646;49.716;9.266;2022-11-14T15:48:45;20.43;;;8.20;;
17059;SDS011;8646;49.716;9.266;2022-11-14T15:51:49;18.87;;;8.30;;
17059;SDS011;8646;49.716;9.266;2022-11-14T15:54:56;33.60;;;15.40;;
17059;SDS011;8646;49.716;9.266;2022-11-14T15:57:58;17.10;;;8.27;;
17059;SDS011;8646;49.716;9.266;2022-11-14T16:01:22;21.80;;;8.97;;
17059;SDS011;8646;49.716;9.266;2022-11-14T16:04:27;16.20;;;6.90;;
17059;SDS011;8646;49.716;9.266;2022-11-14T16:07:33;10.73;;;4.63;;
17059;SDS011;8646;49.716;9.266;2022-11-14T16:10:37;4.47;;;2.60;;
17059;SDS011;8646;49.716;9.266;2022-11-14T16:13:41;22.20;;;9.80;;
17059;SDS011;8646;49.716;9.266;2022-11-14T16:16:43;19.50;;;7.87;;
17059;SDS011;8646;49.716;9.266;2022-11-14T16:19:46;12.43;;;4.70;;
17059;SDS011;8646;49.716;9.266;2022-11-14T16:22:49;18.57;;;8.50;;
17059;SDS011;8646;49.716;9.266;2022-11-14T16:25:55;26.97;;;14.33;;
17059;SDS011;8646;49.716;9.266;2022-11-14T16:28:58;8.13;;;4.00;;
17059;SDS011;8646;49.716;9.266;2022-11-14T16:32:01;23.53;;;11.53;;
17059;SDS011;8646;49.716;9.266;2022-11-14T16:35:05;12.53;;;5.63;;
17059;SDS011;8646;49.716;9.266;2022-11-14T16:38:09;19.37;;;9.80;;
17059;SDS011;8646;49.716;9.266;2022-11-14T16:41:15;18.33;;;8.13;;
17059;SDS011;8646;49.716;9.266;2022-11-14T16:44:18;12.20;;;6.17;;
17059;SDS011;8646;49.716;9.266;2022-11-14T16:47:22;10.20;;;4.47;;
17059;SDS011;8646;49.716;9.266;2022-11-14T16:50:24;19.77;;;8.50;;
17059;SDS011;8646;49.716;9.266;2022-11-14T16:53:28;14.73;;;6.77;;
17059;SDS011;8646;49.716;9.266;2022-11-14T16:56:32;14.67;;;6.00;;
17059;SDS011;8646;49.716;9.266;2022-11-14T16:59:35;8.93;;;4.30;;
17059;SDS011;8646;49.716;9.266;2022-11-14T17:02:38;17.07;;;7.27;;
17059;SDS011;8646;49.716;9.266;2022-11-14T17:05:42;21.07;;;9.70;;
17059;SDS011;8646;49.716;9.266;2022-11-14T17:08:45;15.90;;;7.17;;
17059;SDS011;8646;49.716;9.266;2022-11-14T17:11:50;10.27;;;5.07;;
17059;SDS011;8646;49.716;9.266;2022-11-14T17:14:53;10.70;;;5.27;;
17059;SDS011;8646;49.716;9.266;2022-11-14T17:17:56;6.90;;;3.47;;
17059;SDS011;8646;49.716;9.266;2022-11-14T17:21:02;9.93;;;4.93;;
17059;SDS011;8646;49.716;9.266;2022-11-14T17:24:06;9.77;;;4.47;;
17059;SDS011;8646;49.716;9.266;2022-11-14T17:27:10;19.37;;;7.03;;
17059;SDS011;8646;49.716;9.266;2022-11-14T17:30:14;17.07;;;6.63;;
17059;SDS011;8646;49.716;9.266;2022-11-14T17:33:17;15.57;;;6.03;;
17059;SDS011;8646;49.716;9.266;2022-11-14T17:36:21;10.33;;;4.33;;
17059;SDS011;8646;49.716;9.266;2022-11-14T17:39:24;17.93;;;7.73;;
17059;SDS011;8646;49.716;9.266;2022-11-14T17:42:28;20.43;;;8.87;;
17059;SDS011;8646;49.716;9.266;2022-11-14T17:45:31;15.47;;;6.37;;
17059;SDS011;8646;49.716;9.266;2022-11-14T17:48:40;16.23;;;7.27;;
17059;SDS011;8646;49.716;9.266;2022-11-14T17:51:43;20.20;;;8.83;;
17059;SDS011;8646;49.716;9.266;2022-11-14T17:54:46;18.27;;;8.50;;
17059;SDS011;8646;49.716;9.266;2022-11-14T17:57:50;10.40;;;4.60;;
17059;SDS011;8646;49.716;9.266;2022-11-14T18:00:53;20.03;;;7.50;;
17059;SDS011;8646;49.716;9.266;2022-11-14T18:03:58;18.80;;;7.83;;
17059;SDS011;8646;49.716;9.266;2022-11-14T18:07:06;29.13;;;7.50;;
17059;SDS011;8646;49.716;9.266;2022-11-14T18:10:10;24.70;;;11.83;;
17059;SDS011;8646;49.716;9.266;2022-11-14T18:13:14;21.57;;;9.37;;
17059;SDS011;8646;49.716;9.266;2022-11-14T18:16:18;19.73;;;8.13;;
17059;SDS011;8646;49.716;9.266;2022-11-14T18:19:21;25.17;;;8.30;;
17059;SDS011;8646;49.716;9.266;2022-11-14T18:22:24;19.47;;;8.80;;
17059;SDS011;8646;49.716;9.266;2022-11-14T18:25:27;18.77;;;8.53;;
17059;SDS011;8646;49.716;9.266;2022-11-14T18:28:33;13.83;;;6.10;;
17059;SDS011;8646;49.716;9.266;2022-11-14T18:31:35;19.93;;;8.37;;
17059;SDS011;8646;49.716;9.266;2022-11-14T18:34:38;26.10;;;10.77;;
17059;SDS011;8646;49.716;9.266;2022-11-14T18:37:42;18.43;;;7.63;;
17059;SDS011;8646;49.716;9.266;2022-11-14T18:40:45;27.77;;;11.53;;
17059;SDS011;8646;49.716;9.266;2022-11-14T18:43:54;18.37;;;8.50;;